createdAt,value
2019-05-28T00:01:18.942Z,7.20
2019-05-28T00:03:47.749Z,11.53
2019-05-28T00:06:16.486Z,8.93
2019-05-28T00:08:45.147Z,13.13
2019-05-28T06:20:26.331Z,18.37
2019-05-28T06:23:20.640Z,12.57
2019-05-28T06:26:07.010Z,14.03
2019-05-28T06:28:55.129Z,12.67
2019-05-28T06:31:35.461Z,15.17
2019-05-28T06:34:22.323Z,14.77
2019-05-28T06:37:04.473Z,19.47
2019-05-28T06:39:33.049Z,13.03
2019-05-28T06:42:05.520Z,16.17
2019-05-28T06:44:35.927Z,17.53
2019-05-28T06:47:04.664Z,15.17
2019-05-28T06:49:36.372Z,15.77
2019-05-28T06:52:05.528Z,15.70
2019-05-28T06:54:37.352Z,12.67
2019-05-28T06:57:21.863Z,16.70
2019-05-28T06:59:36.691Z,11.80
2019-05-28T07:02:10.226Z,12.97
2019-05-28T07:04:40.499Z,15.47
2019-05-28T07:07:10.538Z,14.40
2019-05-28T07:09:42.652Z,16.67
2019-05-28T07:12:13.710Z,12.97
2019-05-28T07:14:48.230Z,14.13
2019-05-28T07:17:17.164Z,12.57
2019-05-28T07:19:45.782Z,14.03
2019-05-28T07:22:14.328Z,15.67
2019-05-28T07:24:42.820Z,13.17
2019-05-28T07:27:11.355Z,8.93
2019-05-28T07:29:39.914Z,8.30
2019-05-28T07:32:08.500Z,10.53
2019-05-28T07:34:37.553Z,12.10
2019-05-28T07:37:06.563Z,11.60
2019-05-28T07:39:35.684Z,11.57
2019-05-28T07:42:05.074Z,14.07
2019-05-28T07:44:33.777Z,11.97
2019-05-28T07:47:02.475Z,12.53
2019-05-28T07:49:31.327Z,11.37
2019-05-28T07:52:10.755Z,9.00
2019-05-28T07:54:39.975Z,12.00
2019-05-28T07:57:11.403Z,11.57
2019-05-28T07:59:54.360Z,10.60
2019-05-28T08:02:27.966Z,13.87
2019-05-28T08:04:57.753Z,11.47
2019-05-28T08:07:47.347Z,10.97
2019-05-28T08:10:23.271Z,11.70
2019-05-28T08:12:59.749Z,11.13
2019-05-28T08:15:30.628Z,9.13
2019-05-28T08:18:07.517Z,5.90
2019-05-28T08:20:40.345Z,10.33
2019-05-28T08:23:12.335Z,11.70
2019-05-28T08:25:48.306Z,5.97
2019-05-28T08:28:30.636Z,6.93
2019-05-28T08:31:16.182Z,8.60
2019-05-28T08:33:39.470Z,8.13
2019-05-28T08:36:09.262Z,9.50
2019-05-28T08:38:38.959Z,14.50
2019-05-28T08:41:09.178Z,15.03
2019-05-28T08:43:38.066Z,17.27
2019-05-28T08:46:09.960Z,12.68
2019-05-28T08:48:39.132Z,13.90
2019-05-28T08:51:10.521Z,14.33
2019-05-28T08:53:43.793Z,17.20
2019-05-28T08:56:13.086Z,14.87
2019-05-28T08:58:42.256Z,18.77
2019-05-28T09:01:11.469Z,14.17
2019-05-28T09:03:40.604Z,9.47
2019-05-28T09:06:11.076Z,10.20
2019-05-28T09:08:40.513Z,9.80
2019-05-28T09:11:10.267Z,5.50
2019-05-28T09:13:39.332Z,9.40
2019-05-28T09:16:08.183Z,3.90
2019-05-28T09:18:39.738Z,9.67
2019-05-28T09:21:11.754Z,4.90
2019-05-28T09:23:42.139Z,5.93
2019-05-28T09:26:23.477Z,3.97
2019-05-28T09:28:55.921Z,4.43
2019-05-28T09:31:30.455Z,2.70
2019-05-28T09:33:59.391Z,4.70
2019-05-28T09:36:40.187Z,7.33
2019-05-28T09:39:17.434Z,6.33
2019-05-28T09:41:57.614Z,10.47
2019-05-28T09:44:37.196Z,13.53
2019-05-28T09:47:09.925Z,5.83
2019-05-28T09:49:50.538Z,3.63
2019-05-28T09:52:20.146Z,6.40
2019-05-28T09:54:49.810Z,6.83
2019-05-28T09:57:19.056Z,10.57
2019-05-28T09:59:48.506Z,5.03
2019-05-28T10:02:17.983Z,7.50
2019-05-28T10:04:49.900Z,9.73
2019-05-28T10:07:17.140Z,7.87
2019-05-28T10:09:45.840Z,7.40
2019-05-28T10:12:14.495Z,6.53
2019-05-28T10:14:44.401Z,8.30
2019-05-28T10:17:13.236Z,8.27
2019-05-28T10:19:41.972Z,7.77
2019-05-28T10:22:10.589Z,5.23
2019-05-28T10:24:39.203Z,7.67
2019-05-28T10:27:07.786Z,4.80
2019-05-28T10:29:36.452Z,5.33
2019-05-28T10:32:05.033Z,8.37
2019-05-28T10:34:33.668Z,4.73
2019-05-28T10:37:02.497Z,2.40
2019-05-28T10:39:31.183Z,4.17
2019-05-28T10:41:59.832Z,6.30
2019-05-28T10:44:28.400Z,2.73
2019-05-28T10:46:56.904Z,4.70
2019-05-28T10:49:25.715Z,3.80
2019-05-28T10:51:54.329Z,4.80
2019-05-28T10:54:23.064Z,3.10
2019-05-28T10:56:51.669Z,3.57
2019-05-28T10:59:20.284Z,3.80
2019-05-28T11:01:49.260Z,2.77
2019-05-28T11:04:17.811Z,4.30
2019-05-28T11:06:51.896Z,4.23
2019-05-28T11:09:17.646Z,3.93
2019-05-28T11:11:46.273Z,3.33
2019-05-28T11:14:14.879Z,2.50
2019-05-28T11:16:43.559Z,5.43
2019-05-28T11:19:12.424Z,3.13
2019-05-28T11:21:41.135Z,3.70
2019-05-28T11:24:09.716Z,2.97
2019-05-28T11:26:38.271Z,5.23
2019-05-28T11:29:15.992Z,3.30
2019-05-28T11:31:44.664Z,2.23
2019-05-28T11:34:13.308Z,2.83
2019-05-28T11:36:41.942Z,2.07
2019-05-28T11:39:11.058Z,3.03
2019-05-28T11:41:42.405Z,2.77
2019-05-28T11:44:10.027Z,5.25
2019-05-28T11:46:38.742Z,4.60
2019-05-28T11:49:07.531Z,5.17
2019-05-28T11:51:36.095Z,4.58
2019-05-28T11:54:04.767Z,4.20
2019-05-28T11:56:33.727Z,3.67
2019-05-28T11:59:02.451Z,2.47
2019-05-28T12:01:34.932Z,3.73
2019-05-28T12:04:02.164Z,4.23
2019-05-28T12:06:30.897Z,4.43
2019-05-28T12:08:59.574Z,5.33
2019-05-28T12:11:28.304Z,6.00
2019-05-28T12:13:57.594Z,4.93
2019-05-28T12:16:26.532Z,6.73
2019-05-28T12:18:58.194Z,5.27
2019-05-28T18:21:09.699Z,7.10
2019-05-28T18:23:38.344Z,8.03
2019-05-28T18:26:07.080Z,9.53
2019-05-28T18:28:35.695Z,7.27
2019-05-28T18:31:04.249Z,8.83
2019-05-28T18:33:32.987Z,7.43
2019-05-28T18:36:01.578Z,7.63
2019-05-28T18:38:30.306Z,7.67
2019-05-28T18:40:58.949Z,7.73
2019-05-28T18:43:27.612Z,7.73
2019-05-28T18:45:56.181Z,10.37
2019-05-28T18:48:24.940Z,9.48
2019-05-28T18:50:53.605Z,7.53
2019-05-28T18:53:22.233Z,10.17
2019-05-28T18:55:50.885Z,6.73
2019-05-28T18:58:19.598Z,8.30
2019-05-28T19:00:48.410Z,7.77
2019-05-28T19:03:17.019Z,7.83
2019-05-28T19:05:45.702Z,11.70
2019-05-28T19:08:15.003Z,6.60
2019-05-28T19:10:43.797Z,7.93
2019-05-28T19:13:12.473Z,7.17
2019-05-28T19:15:41.268Z,7.57
2019-05-28T19:18:09.981Z,7.63
2019-05-28T19:20:38.761Z,8.27
2019-05-28T19:23:07.478Z,7.17
2019-05-28T19:25:36.174Z,8.23
2019-05-28T19:28:07.623Z,9.40
2019-05-28T19:30:41.784Z,9.03
2019-05-28T19:33:10.785Z,10.70
2019-05-28T19:35:39.522Z,11.50
2019-05-28T19:38:08.205Z,12.30
2019-05-28T19:40:37.573Z,12.50
2019-05-28T19:43:06.385Z,13.20
2019-05-28T19:45:35.442Z,15.67
2019-05-28T19:48:04.676Z,14.60
2019-05-28T19:50:33.360Z,18.37
2019-05-28T19:53:02.068Z,15.07
2019-05-28T19:55:30.759Z,15.67
2019-05-28T19:58:02.461Z,19.07
2019-05-28T20:00:31.098Z,19.87
2019-05-28T20:03:01.096Z,19.57
2019-05-28T20:05:29.866Z,22.80
2019-05-28T20:07:59.677Z,23.13
2019-05-28T20:10:31.377Z,23.10
2019-05-28T20:13:00.454Z,24.83
2019-05-28T20:15:29.436Z,28.27
2019-05-28T20:17:58.172Z,24.00
2019-05-28T20:20:29.687Z,25.37
2019-05-28T20:22:58.430Z,24.47
2019-05-28T20:25:27.008Z,24.77
2019-05-28T20:27:56.032Z,24.50
2019-05-28T20:33:03.249Z,21.53
2019-05-28T20:35:32.099Z,22.90
2019-05-28T20:38:06.345Z,22.57
2019-05-28T20:40:33.860Z,20.47
2019-05-28T20:52:30.352Z,18.07
2019-05-28T20:55:23.752Z,15.83
2019-05-28T20:57:55.581Z,18.67
2019-05-28T21:00:31.801Z,15.80
2019-05-28T21:03:03.617Z,18.80
2019-05-28T21:05:32.480Z,16.00
2019-05-28T21:08:01.543Z,16.40
2019-05-28T21:10:30.235Z,17.67
2019-05-28T21:13:01.074Z,15.43
2019-05-28T21:15:30.021Z,15.80
2019-05-28T21:17:59.492Z,16.13
2019-05-28T21:20:28.348Z,16.07
2019-05-28T21:22:58.072Z,15.70
2019-05-28T21:25:26.899Z,16.40
2019-05-28T21:27:56.443Z,14.60
2019-05-28T21:30:25.161Z,15.83
2019-05-28T21:32:54.671Z,16.70
2019-05-28T21:35:23.633Z,14.23
2019-05-28T21:37:53.082Z,16.33
2019-05-28T21:40:21.907Z,17.27
2019-05-28T21:43:00.339Z,16.83
2019-05-28T21:45:21.121Z,20.90
2019-05-28T21:47:49.910Z,17.85
2019-05-28T21:50:18.874Z,18.50
2019-05-28T21:52:47.624Z,16.00
2019-05-28T21:55:16.272Z,14.97
2019-05-28T21:57:45.082Z,20.23
2019-05-28T22:00:17.754Z,15.30
2019-05-28T22:02:46.548Z,15.17
2019-05-28T22:05:15.566Z,17.43
2019-05-28T22:07:44.344Z,15.90
2019-05-28T22:10:13.201Z,15.10
2019-05-28T22:12:41.945Z,14.90
2019-05-28T22:15:10.599Z,14.20
2019-05-28T22:17:39.189Z,16.50
2019-05-28T22:20:08.771Z,13.33
2019-05-28T22:22:37.548Z,12.37
2019-05-28T22:25:07.075Z,15.10
2019-05-28T22:27:35.706Z,14.00
2019-05-28T22:30:06.358Z,16.50
2019-05-28T22:32:35.579Z,14.60
2019-05-28T22:35:04.577Z,14.70
2019-05-28T22:37:33.402Z,16.13
2019-05-28T22:40:03.407Z,14.63
2019-05-28T22:42:32.644Z,17.10
2019-05-28T22:45:03.364Z,16.40
2019-05-28T22:47:31.818Z,15.53
2019-05-28T22:50:15.773Z,13.60
2019-05-28T22:52:31.278Z,15.10
2019-05-28T22:55:00.278Z,14.80
2019-05-28T22:57:29.179Z,14.57
2019-05-28T22:59:58.378Z,14.37
2019-05-28T23:02:27.270Z,13.50
2019-05-28T23:04:56.318Z,14.23
2019-05-28T23:07:25.268Z,18.67
2019-05-28T23:09:54.028Z,14.23
2019-05-28T23:12:22.828Z,15.33
2019-05-28T23:14:51.516Z,16.20
2019-05-28T23:17:20.300Z,17.37
2019-05-28T23:19:49.237Z,16.27
2019-05-28T23:22:17.978Z,16.90
2019-05-28T23:24:46.786Z,17.23
2019-05-28T23:27:15.497Z,18.07
2019-05-28T23:29:44.361Z,17.53
2019-05-28T23:32:13.107Z,19.63
2019-05-28T23:34:41.976Z,19.23
2019-05-28T23:37:10.947Z,17.33
2019-05-28T23:39:39.713Z,17.40
2019-05-28T23:42:09.363Z,18.92
2019-05-28T23:44:38.295Z,18.07
2019-05-28T23:47:08.014Z,21.23
2019-05-28T23:49:36.801Z,20.50
2019-05-28T23:52:08.587Z,20.10
2019-05-28T23:54:37.467Z,18.53
2019-05-28T23:57:06.239Z,18.63
2019-05-28T23:59:34.991Z,22.47
